Time;durP1;ratioP1;P1;durP2;ratioP2;P2;SDS_P1;SDS_P2;PMS_P1;PMS_P2;Temp;Humidity;BMP_temperature;BMP_pressure;BME280_temperature;BME280_humidity;BME280_pressure;Samples;Min_cycle;Max_cycle;Signal;HPM_P1;HPM_P2
2023/07/16 00:01:57;;;;;;;1.60;1.47;;;18.90;99.90;;;;;;5054469;28;20167;-70
2023/07/16 00:04:22;;;;;;;3.13;2.17;;;18.90;99.90;;;;;;5054566;28;20668;-70
2023/07/16 00:06:48;;;;;;;3.97;2.00;;;18.90;99.90;;;;;;5053918;28;20659;-70
2023/07/16 00:09:13;;;;;;;2.63;1.93;;;18.80;99.90;;;;;;5054297;28;20544;-69
2023/07/16 00:11:39;;;;;;;2.17;1.73;;;18.80;99.90;;;;;;5054205;28;20171;-69
2023/07/16 00:14:05;;;;;;;1.83;1.20;;;18.70;99.90;;;;;;5054272;28;20167;-69
2023/07/16 00:16:30;;;;;;;2.13;1.70;;;18.70;99.90;;;;;;5053951;28;20181;-69
2023/07/16 00:18:56;;;;;;;1.67;1.50;;;18.70;99.90;;;;;;5054044;28;20198;-69
2023/07/16 00:21:21;;;;;;;1.73;1.20;;;18.70;99.90;;;;;;5053891;28;20199;-70
2023/07/16 00:23:47;;;;;;;1.40;1.17;;;18.70;99.90;;;;;;5054194;28;20175;-70
2023/07/16 00:26:13;;;;;;;1.90;1.70;;;18.70;99.90;;;;;;5053861;28;20636;-70
2023/07/16 00:28:39;;;;;;;3.43;1.77;;;18.80;99.90;;;;;;5054085;28;20217;-70
2023/07/16 00:31:04;;;;;;;2.13;1.43;;;18.80;99.90;;;;;;5053971;28;20437;-69
2023/07/16 00:33:30;;;;;;;2.90;1.63;;;18.80;99.90;;;;;;5053882;28;20672;-69
2023/07/16 00:35:55;;;;;;;1.80;1.70;;;18.80;99.90;;;;;;5053438;28;20624;-69
2023/07/16 00:38:21;;;;;;;1.90;1.43;;;18.80;99.90;;;;;;5053295;28;20674;-69
2023/07/16 00:40:47;;;;;;;2.93;1.40;;;18.80;99.90;;;;;;5053261;28;20229;-70
2023/07/16 00:43:13;;;;;;;1.33;1.23;;;18.80;99.90;;;;;;5054083;28;20548;-69
2023/07/16 00:45:39;;;;;;;3.20;1.50;;;18.70;99.90;;;;;;5053248;28;20401;-69
2023/07/16 00:48:06;;;;;;;2.30;1.43;;;18.70;99.90;;;;;;5053565;28;20183;-69
2023/07/16 00:50:34;;;;;;;2.23;1.60;;;18.70;99.90;;;;;;5053590;28;20908;-69
2023/07/16 00:53:03;;;;;;;5.37;1.63;;;18.60;99.90;;;;;;5053550;28;20452;-69
2023/07/16 00:55:32;;;;;;;1.93;1.33;;;18.60;99.90;;;;;;5053286;28;20398;-69
2023/07/16 00:58:02;;;;;;;1.57;1.47;;;18.50;99.90;;;;;;5053313;28;20975;-69
2023/07/16 01:00:28;;;;;;;9.10;2.17;;;18.40;99.90;;;;;;5053075;28;20484;-69
2023/07/16 01:02:54;;;;;;;2.30;1.47;;;18.40;99.90;;;;;;5053389;28;20832;-69
2023/07/16 01:05:21;;;;;;;2.50;2.17;;;18.30;99.90;;;;;;5052877;28;20710;-69
2023/07/16 01:07:55;;;;;;;2.93;1.77;;;18.20;99.90;;;;;;5053093;28;20206;-69
2023/07/16 01:10:22;;;;;;;2.00;1.70;;;18.20;99.90;;;;;;5053122;28;20398;-69
2023/07/16 01:12:49;;;;;;;2.87;2.23;;;18.10;99.90;;;;;;5053380;28;20412;-70
2023/07/16 01:15:14;;;;;;;2.80;1.93;;;18.10;99.90;;;;;;5052909;28;20412;-70
2023/07/16 01:17:40;;;;;;;3.60;1.60;;;18.00;99.90;;;;;;5053168;28;20429;-70
2023/07/16 01:20:06;;;;;;;2.93;1.90;;;17.90;99.90;;;;;;5052997;28;20194;-70
2023/07/16 01:22:52;;;;;;;3.97;2.03;;;17.90;99.90;;;;;;5052045;28;20170;-70
2023/07/16 01:25:46;;;;;;;4.23;1.60;;;17.90;99.90;;;;;;5052986;28;20406;-70
2023/07/16 01:28:42;;;;;;;1.97;1.40;;;17.90;99.90;;;;;;5053006;28;20441;-70
2023/07/16 01:31:10;;;;;;;7.33;1.73;;;17.90;99.90;;;;;;5053063;28;20459;-69
2023/07/16 01:33:38;;;;;;;2.47;1.60;;;17.90;99.90;;;;;;5052400;28;20409;-70
2023/07/16 01:36:04;;;;;;;1.80;1.70;;;17.90;99.90;;;;;;5052073;28;20436;-70
2023/07/16 01:38:30;;;;;;;1.93;1.30;;;17.80;99.90;;;;;;5052718;28;20421;-70
2023/07/16 01:40:56;;;;;;;3.47;1.57;;;17.90;99.90;;;;;;5052787;28;20815;-70
2023/07/16 01:43:21;;;;;;;2.60;1.53;;;17.90;99.90;;;;;;5052683;28;20628;-70
2023/07/16 01:45:47;;;;;;;2.03;1.40;;;17.90;99.90;;;;;;5052314;28;20708;-70
2023/07/16 01:48:29;;;;;;;1.87;1.67;;;17.80;99.90;;;;;;5052506;28;20244;-69
2023/07/16 01:50:55;;;;;;;1.77;1.10;;;17.80;99.90;;;;;;5051746;28;20167;-70
2023/07/16 01:53:20;;;;;;;3.00;1.63;;;17.80;99.90;;;;;;5052274;28;20755;-70
2023/07/16 01:55:46;;;;;;;1.80;1.60;;;17.80;99.90;;;;;;5052092;28;20174;-69
2023/07/16 01:58:11;;;;;;;7.73;2.23;;;17.80;99.90;;;;;;5052098;28;20648;-70
2023/07/16 02:00:37;;;;;;;2.33;1.60;;;17.80;99.90;;;;;;5052418;28;20202;-71
2023/07/16 02:03:02;;;;;;;3.83;1.73;;;17.80;99.90;;;;;;5052417;28;20185;-70
2023/07/16 02:05:28;;;;;;;3.47;1.30;;;17.70;99.90;;;;;;5052250;28;20167;-70
2023/07/16 02:07:53;;;;;;;3.43;1.87;;;17.70;99.90;;;;;;5052098;28;20229;-69
2023/07/16 02:10:19;;;;;;;2.20;1.43;;;17.70;99.90;;;;;;5052169;28;20701;-70
2023/07/16 02:12:45;;;;;;;2.57;1.57;;;17.70;99.90;;;;;;5051814;28;20174;-70
2023/07/16 02:15:10;;;;;;;1.83;1.47;;;17.70;99.90;;;;;;5051440;28;20178;-70
2023/07/16 02:17:36;;;;;;;4.63;1.40;;;17.70;99.90;;;;;;5052045;28;20240;-70
2023/07/16 02:20:05;;;;;;;1.40;1.20;;;17.60;99.90;;;;;;5051866;28;20206;-70
2023/07/16 02:22:31;;;;;;;2.10;1.37;;;17.60;99.90;;;;;;5052023;28;20175;-70
2023/07/16 02:24:56;;;;;;;2.57;1.20;;;17.60;99.90;;;;;;5051635;28;20739;-69
2023/07/16 02:27:22;;;;;;;2.27;1.10;;;17.50;99.90;;;;;;5051790;28;20171;-70
2023/07/16 02:29:47;;;;;;;2.40;1.60;;;17.50;99.90;;;;;;5052150;28;20167;-70
2023/07/16 02:32:13;;;;;;;4.00;1.77;;;17.50;99.90;;;;;;5051685;28;20183;-70
2023/07/16 02:34:38;;;;;;;2.07;1.50;;;17.50;99.90;;;;;;5051620;28;20174;-70
2023/07/16 02:37:04;;;;;;;1.83;1.30;;;17.50;99.90;;;;;;5051838;28;20257;-70
2023/07/16 02:39:29;;;;;;;3.83;1.73;;;17.50;99.90;;;;;;5051895;28;20566;-70
2023/07/16 02:41:55;;;;;;;2.80;1.80;;;17.50;99.90;;;;;;5051739;28;20167;-70
2023/07/16 02:44:20;;;;;;;2.73;1.40;;;17.50;99.90;;;;;;5051853;28;20182;-69
2023/07/16 02:46:46;;;;;;;4.10;1.67;;;17.40;99.90;;;;;;5051563;28;20170;-70
2023/07/16 02:49:11;;;;;;;1.77;1.67;;;17.40;99.90;;;;;;5051733;28;20197;-69
2023/07/16 02:51:37;;;;;;;3.47;1.50;;;17.40;99.90;;;;;;5051636;28;20246;-70
2023/07/16 02:54:02;;;;;;;3.07;1.30;;;17.40;99.90;;;;;;5051732;28;20175;-70
2023/07/16 02:56:28;;;;;;;2.40;1.20;;;17.40;99.90;;;;;;5051108;28;20251;-70
2023/07/16 02:58:54;;;;;;;3.07;1.50;;;17.40;99.90;;;;;;5050191;28;20202;-70
2023/07/16 03:01:19;;;;;;;1.80;1.50;;;17.30;99.90;;;;;;5050326;28;20182;-70
2023/07/16 03:03:45;;;;;;;1.80;1.30;;;17.30;99.90;;;;;;5054043;28;20677;-70
2023/07/16 03:06:10;;;;;;;4.63;1.40;;;17.40;99.90;;;;;;5055269;28;20224;-70
2023/07/16 03:08:36;;;;;;;2.27;1.63;;;17.40;99.90;;;;;;5055613;28;20195;-70
2023/07/16 03:11:01;;;;;;;5.07;1.87;;;17.40;99.90;;;;;;5055662;28;20202;-70
2023/07/16 03:13:27;;;;;;;1.40;1.10;;;17.40;99.90;;;;;;5055507;28;20171;-70
2023/07/16 03:15:52;;;;;;;1.60;1.23;;;17.40;99.90;;;;;;5054904;28;20914;-69
2023/07/16 03:18:19;;;;;;;3.90;1.57;;;17.40;99.90;;;;;;5055179;28;20215;-70
2023/07/16 03:20:44;;;;;;;8.17;1.60;;;17.40;99.90;;;;;;5055174;28;20238;-70
2023/07/16 03:23:10;;;;;;;4.83;4.43;;;17.30;99.90;;;;;;5055142;28;20448;-70
2023/07/16 03:25:35;;;;;;;1.87;1.37;;;17.40;99.90;;;;;;5054921;28;20164;-69
2023/07/16 03:28:01;;;;;;;1.77;1.67;;;17.40;99.90;;;;;;5055170;28;20280;-70
2023/07/16 03:30:26;;;;;;;3.30;1.50;;;17.30;99.90;;;;;;5055138;28;20263;-70
2023/07/16 03:32:52;;;;;;;1.37;1.07;;;17.30;99.90;;;;;;5055059;28;20183;-70
2023/07/16 03:35:18;;;;;;;3.00;1.87;;;17.30;99.90;;;;;;5054762;28;20167;-70
2023/07/16 03:37:43;;;;;;;1.50;1.40;;;17.30;99.90;;;;;;5054796;28;20281;-70
2023/07/16 03:40:17;;;;;;;2.10;1.50;;;17.30;99.90;;;;;;5054934;28;20282;-70
2023/07/16 03:42:43;;;;;;;3.63;1.40;;;17.30;99.90;;;;;;5054957;28;20168;-69
2023/07/16 03:45:10;;;;;;;3.00;1.70;;;17.20;99.90;;;;;;5054616;28;20402;-70
2023/07/16 03:47:36;;;;;;;2.53;1.50;;;17.20;99.90;;;;;;5054766;28;20190;-70
2023/07/16 03:50:02;;;;;;;2.60;1.40;;;17.20;99.90;;;;;;5054849;28;21115;-70
2023/07/16 03:52:28;;;;;;;1.60;1.40;;;17.20;99.90;;;;;;5054911;28;20570;-69
2023/07/16 03:54:54;;;;;;;1.83;1.37;;;17.10;99.90;;;;;;5054518;28;20406;-70
2023/07/16 03:57:20;;;;;;;1.90;1.40;;;17.10;99.90;;;;;;5054504;28;20413;-70
2023/07/16 03:59:45;;;;;;;20.13;12.63;;;17.20;99.90;;;;;;5054525;28;20962;-70
2023/07/16 04:02:11;;;;;;;2.50;2.30;;;17.10;99.90;;;;;;5054664;28;20174;-70
2023/07/16 04:04:36;;;;;;;17.00;11.40;;;17.10;99.90;;;;;;5054383;28;20159;-69
2023/07/16 04:07:02;;;;;;;2.30;1.70;;;17.20;99.90;;;;;;5054024;28;20183;-69
2023/07/16 04:09:27;;;;;;;3.47;2.13;;;17.10;99.90;;;;;;5054267;28;20191;-70
2023/07/16 04:11:53;;;;;;;1.30;1.20;;;17.10;99.90;;;;;;5054319;28;20167;-70
2023/07/16 04:14:18;;;;;;;2.83;2.00;;;17.10;99.90;;;;;;5053207;28;20212;-69
2023/07/16 04:16:44;;;;;;;1.60;1.50;;;17.10;99.90;;;;;;5054018;28;20511;-70
2023/07/16 04:19:10;;;;;;;2.63;1.80;;;17.20;99.90;;;;;;5053931;28;20197;-70
2023/07/16 04:21:35;;;;;;;2.67;1.70;;;17.20;99.90;;;;;;5054189;28;20170;-70
2023/07/16 04:24:02;;;;;;;4.80;1.77;;;17.20;99.90;;;;;;5054079;28;20163;-70
2023/07/16 04:26:28;;;;;;;4.90;1.60;;;17.20;99.90;;;;;;5053797;28;20167;-70
2023/07/16 04:28:53;;;;;;;2.60;1.87;;;17.10;99.90;;;;;;5052612;28;20539;-70
2023/07/16 04:31:19;;;;;;;4.83;1.73;;;17.10;99.90;;;;;;5053947;28;20166;-70
2023/07/16 04:33:44;;;;;;;2.30;1.47;;;17.20;99.90;;;;;;5053893;28;20166;-70
2023/07/16 04:36:10;;;;;;;3.00;1.90;;;17.30;99.90;;;;;;5053633;28;20171;-70
2023/07/16 04:38:35;;;;;;;1.97;1.70;;;17.20;99.90;;;;;;5053673;28;20183;-70
2023/07/16 04:41:02;;;;;;;3.30;1.77;;;17.30;99.90;;;;;;5053717;28;20173;-70
2023/07/16 04:43:28;;;;;;;3.20;2.20;;;17.30;99.90;;;;;;5053549;28;20163;-69
2023/07/16 04:45:53;;;;;;;5.30;1.77;;;17.20;99.90;;;;;;5053351;28;20727;-69
2023/07/16 04:48:19;;;;;;;3.77;1.80;;;17.30;99.90;;;;;;5053577;28;20554;-69
2023/07/16 04:50:44;;;;;;;2.40;1.80;;;17.30;99.90;;;;;;5053624;28;20198;-69
2023/07/16 04:53:10;;;;;;;6.10;2.30;;;17.40;99.90;;;;;;5053611;28;20201;-69
2023/07/16 04:55:39;;;;;;;5.20;2.50;;;17.40;99.90;;;;;;5053198;28;20175;-70
2023/07/16 04:58:05;;;;;;;3.37;2.23;;;17.40;99.90;;;;;;5053189;28;20191;-70
2023/07/16 05:00:34;;;;;;;3.60;2.87;;;17.40;99.90;;;;;;5053323;28;20445;-70
2023/07/16 05:03:00;;;;;;;8.10;2.73;;;17.50;99.90;;;;;;5053347;28;20404;-70
2023/07/16 05:05:25;;;;;;;2.37;1.93;;;17.50;99.90;;;;;;5051728;28;20445;-70
2023/07/16 05:07:51;;;;;;;2.37;1.80;;;17.70;99.90;;;;;;5053180;28;20476;-70
2023/07/16 05:10:16;;;;;;;4.13;2.27;;;17.80;99.90;;;;;;5053115;28;20171;-70
2023/07/16 05:12:42;;;;;;;3.33;2.10;;;17.80;99.90;;;;;;5053184;28;20171;-71
2023/07/16 05:15:08;;;;;;;2.67;1.53;;;17.90;99.90;;;;;;5052728;28;20178;-70
2023/07/16 05:17:34;;;;;;;3.17;2.20;;;18.10;99.90;;;;;;5052892;28;20340;-70
2023/07/16 05:19:59;;;;;;;1.90;1.70;;;18.10;99.90;;;;;;5053085;28;21013;-70
2023/07/16 05:22:25;;;;;;;5.30;1.90;;;18.10;99.90;;;;;;5052912;28;20241;-70
2023/07/16 05:24:50;;;;;;;2.30;1.60;;;18.20;99.90;;;;;;5052886;28;20159;-70
2023/07/16 05:27:16;;;;;;;4.13;2.00;;;18.10;99.90;;;;;;5052360;28;20243;-70
2023/07/16 05:29:41;;;;;;;3.07;1.30;;;18.20;99.90;;;;;;5052894;28;20619;-70
2023/07/16 05:32:07;;;;;;;4.13;2.30;;;18.30;99.90;;;;;;5051289;28;20173;-70
2023/07/16 05:34:33;;;;;;;2.37;2.00;;;18.30;99.90;;;;;;5052696;28;20182;-70
2023/07/16 05:36:59;;;;;;;2.30;2.10;;;18.40;99.90;;;;;;5052406;28;20397;-70
2023/07/16 05:39:24;;;;;;;6.33;2.97;;;18.60;99.90;;;;;;5052197;28;20190;-70
2023/07/16 05:41:50;;;;;;;6.93;2.23;;;18.80;99.90;;;;;;5052612;28;20185;-70
2023/07/16 05:44:16;;;;;;;4.60;2.60;;;19.00;99.90;;;;;;5052666;28;20167;-71
2023/07/16 05:46:41;;;;;;;3.00;2.07;;;19.20;99.90;;;;;;5052194;28;20163;-70
2023/07/16 05:49:07;;;;;;;3.17;2.03;;;19.40;99.90;;;;;;5052461;28;20194;-70
2023/07/16 05:51:32;;;;;;;3.17;2.73;;;19.50;99.90;;;;;;5051706;28;20178;-71
2023/07/16 05:53:58;;;;;;;5.90;3.30;;;19.90;99.90;;;;;;5052370;28;20170;-71
2023/07/16 05:56:23;;;;;;;4.37;2.40;;;20.20;99.90;;;;;;5052061;28;20174;-70
2023/07/16 05:58:49;;;;;;;3.37;2.47;;;20.60;99.90;;;;;;5052258;28;20183;-71
2023/07/16 06:01:14;;;;;;;5.60;3.10;;;20.60;99.90;;;;;;5052333;28;20628;-70
2023/07/16 06:03:40;;;;;;;4.77;3.63;;;20.60;99.90;;;;;;5052240;28;20163;-70
2023/07/16 06:06:08;;;;;;;3.03;2.73;;;20.50;99.90;;;;;;5051836;28;20628;-71
2023/07/16 06:08:33;;;;;;;7.53;3.10;;;20.60;99.90;;;;;;5051905;28;20752;-70
2023/07/16 06:10:59;;;;;;;6.13;2.80;;;20.90;99.90;;;;;;5051574;28;20405;-71
2023/07/16 06:13:24;;;;;;;5.27;3.10;;;21.30;99.90;;;;;;5051726;28;20163;-70
2023/07/16 06:15:50;;;;;;;4.13;3.00;;;22.10;99.90;;;;;;5051731;28;20244;-71
2023/07/16 06:18:15;;;;;;;7.93;3.30;;;22.80;99.90;;;;;;5051978;28;20214;-71
2023/07/16 06:20:47;;;;;;;5.00;3.00;;;23.40;99.90;;;;;;5051973;28;20194;-70
2023/07/16 06:23:13;;;;;;;4.93;2.50;;;23.90;99.90;;;;;;5051836;28;20181;-71
2023/07/16 06:25:40;;;;;;;3.80;3.17;;;24.20;99.40;;;;;;5051574;28;20397;-71
2023/07/16 06:28:06;;;;;;;4.60;2.80;;;24.70;97.00;;;;;;5051713;28;20513;-71
2023/07/16 06:30:32;;;;;;;3.80;3.10;;;25.60;96.10;;;;;;5051813;28;20496;-71
2023/07/16 06:32:58;;;;;;;3.97;2.63;;;26.40;90.10;;;;;;5051752;28;20165;-71
2023/07/16 06:35:24;;;;;;;4.67;3.53;;;26.90;76.70;;;;;;5051557;28;20440;-71
2023/07/16 06:37:50;;;;;;;6.53;3.10;;;27.00;70.80;;;;;;5054273;28;20449;-71
2023/07/16 06:40:15;;;;;;;6.27;3.47;;;27.40;69.20;;;;;;5058399;28;20677;-71
2023/07/16 06:42:41;;;;;;;3.60;2.50;;;27.90;63.30;;;;;;5058421;28;20523;-71
2023/07/16 06:45:07;;;;;;;5.40;2.73;;;28.60;64.10;;;;;;5058080;28;20166;-71
2023/07/16 06:47:33;;;;;;;4.90;2.70;;;29.50;58.80;;;;;;5058391;28;21880;-72
2023/07/16 06:49:59;;;;;;;5.67;3.00;;;30.20;56.40;;;;;;5058410;28;20790;-71
2023/07/16 06:52:27;;;;;;;5.80;3.60;;;30.50;52.90;;;;;;5058296;28;20177;-71
2023/07/16 06:54:53;;;;;;;4.27;3.10;;;30.00;48.30;;;;;;5058246;28;20206;-71
2023/07/16 06:57:18;;;;;;;7.03;3.60;;;29.60;49.20;;;;;;5058035;28;20416;-71
2023/07/16 06:59:44;;;;;;;4.20;3.50;;;29.30;49.50;;;;;;5057948;28;20445;-71
2023/07/16 07:02:10;;;;;;;3.73;3.17;;;29.30;49.10;;;;;;5058376;28;20165;-71
2023/07/16 07:04:35;;;;;;;8.47;2.83;;;29.60;49.10;;;;;;5058129;28;20506;-71
2023/07/16 07:07:01;;;;;;;4.93;2.90;;;29.50;47.40;;;;;;5057828;28;20182;-71
2023/07/16 07:09:27;;;;;;;4.93;4.40;;;29.60;49.00;;;;;;5058038;28;20186;-71
2023/07/16 07:11:52;;;;;;;4.10;3.27;;;30.20;47.90;;;;;;5058264;28;20166;-71
2023/07/16 07:14:18;;;;;;;3.43;2.50;;;31.00;46.60;;;;;;5058003;28;20167;-72
2023/07/16 07:16:43;;;;;;;6.63;3.10;;;31.90;47.00;;;;;;5057779;28;20162;-72
2023/07/16 07:19:08;;;;;;;3.70;2.90;;;32.60;44.30;;;;;;5058133;28;20191;-72
2023/07/16 07:21:34;;;;;;;5.33;3.00;;;33.10;42.80;;;;;;5057971;28;20155;-71
2023/07/16 07:24:00;;;;;;;3.07;2.87;;;33.30;41.80;;;;;;5058009;28;20534;-71
2023/07/16 07:26:25;;;;;;;2.93;2.73;;;33.80;41.30;;;;;;5057752;28;20167;-72
2023/07/16 07:28:51;;;;;;;3.60;3.10;;;34.10;39.20;;;;;;5057919;28;20976;-72
2023/07/16 07:31:17;;;;;;;3.77;2.97;;;33.70;38.50;;;;;;5058028;28;20195;-71
2023/07/16 07:33:42;;;;;;;7.03;3.40;;;33.30;37.90;;;;;;5057825;28;20296;-72
2023/07/16 07:36:08;;;;;;;4.70;3.47;;;33.30;38.60;;;;;;5057174;28;20236;-71
2023/07/16 07:38:33;;;;;;;5.80;3.20;;;32.70;38.10;;;;;;5057873;28;20229;-72
2023/07/16 07:40:59;;;;;;;5.00;3.20;;;32.40;38.50;;;;;;5057724;28;20206;-72
2023/07/16 07:43:24;;;;;;;3.37;2.70;;;32.40;39.00;;;;;;5057631;28;20177;-72
2023/07/16 07:45:50;;;;;;;3.23;2.80;;;32.60;39.10;;;;;;5057487;28;20632;-72
2023/07/16 07:48:15;;;;;;;6.90;3.17;;;32.80;38.20;;;;;;5057494;28;20187;-72
2023/07/16 07:50:41;;;;;;;3.00;2.70;;;33.30;38.00;;;;;;5054391;28;20167;-71
2023/07/16 07:53:06;;;;;;;3.10;2.80;;;34.00;38.10;;;;;;5054661;28;20173;-71
2023/07/16 07:55:34;;;;;;;8.50;3.47;;;35.20;37.70;;;;;;5054284;28;20259;-71
2023/07/16 07:57:59;;;;;;;4.70;3.90;;;35.50;35.30;;;;;;5054451;28;20190;-71
2023/07/16 08:00:25;;;;;;;3.30;2.93;;;35.30;34.20;;;;;;5054262;28;20453;-71
2023/07/16 08:02:50;;;;;;;4.70;3.53;;;34.80;33.80;;;;;;5054090;28;20170;-70
2023/07/16 08:05:16;;;;;;;3.43;2.83;;;34.70;33.70;;;;;;5053827;28;20209;-71
2023/07/16 08:07:41;;;;;;;3.40;3.00;;;33.80;33.10;;;;;;5054264;28;20203;-71
2023/07/16 08:10:07;;;;;;;4.87;3.00;;;32.80;33.80;;;;;;5054373;28;20173;-71
2023/07/16 08:12:32;;;;;;;3.50;2.80;;;32.40;35.30;;;;;;5054185;28;20172;-70
2023/07/16 08:14:58;;;;;;;4.90;3.80;;;32.60;35.40;;;;;;5054133;28;20166;-71
2023/07/16 08:17:24;;;;;;;7.40;5.50;;;33.30;35.50;;;;;;5053923;28;20220;-71
2023/07/16 08:19:49;;;;;;;6.13;3.47;;;33.80;35.20;;;;;;5053913;28;20320;-71
2023/07/16 08:22:15;;;;;;;3.30;3.00;;;34.60;33.90;;;;;;5054070;28;20178;-71
2023/07/16 08:24:40;;;;;;;2.83;2.53;;;35.60;33.90;;;;;;5054061;28;20182;-67
2023/07/16 08:27:06;;;;;;;3.60;3.30;;;35.80;31.40;;;;;;5053774;28;20171;-67
2023/07/16 08:29:31;;;;;;;3.77;2.87;;;35.90;31.70;;;;;;5052217;28;20209;-66
2023/07/16 08:31:57;;;;;;;3.13;2.83;;;36.80;32.70;;;;;;5053942;28;20171;-65
2023/07/16 08:34:22;;;;;;;3.27;2.87;;;37.80;30.70;;;;;;5053831;28;20226;-67
2023/07/16 08:36:48;;;;;;;3.37;2.80;;;38.00;30.00;;;;;;5053364;28;20235;-68
2023/07/16 08:39:14;;;;;;;6.17;3.37;;;37.80;30.70;;;;;;5053722;28;20264;-67
2023/07/16 08:41:40;;;;;;;3.43;3.13;;;37.50;30.30;;;;;;5053649;28;20209;-68
2023/07/16 08:44:06;;;;;;;3.07;2.83;;;37.10;30.20;;;;;;5053635;28;20409;-66
2023/07/16 08:46:32;;;;;;;5.20;3.60;;;36.20;30.10;;;;;;5053137;28;20171;-73
2023/07/16 08:48:59;;;;;;;4.03;3.30;;;36.20;31.10;;;;;;5053393;28;20400;-73
2023/07/16 08:51:26;;;;;;;7.63;3.73;;;36.20;30.60;;;;;;5053768;28;20406;-73
2023/07/16 08:53:52;;;;;;;3.70;2.90;;;35.70;31.10;;;;;;5053421;28;20412;-72
2023/07/16 08:56:17;;;;;;;2.60;2.40;;;35.20;31.00;;;;;;5072652;28;20404;-73
2023/07/16 08:58:45;;;;;;;2.83;2.33;;;36.00;30.70;;;;;;5072828;28;20568;-72
2023/07/16 09:01:11;;;;;;;2.80;2.57;;;36.80;30.60;;;;;;5073025;28;20163;-72
2023/07/16 09:03:36;;;;;;;2.37;2.20;;;36.50;30.00;;;;;;5019284;28;20535;-71
2023/07/16 09:06:04;;;;;;;2.50;2.30;;;36.40;30.00;;;;;;4993383;28;20447;-73
2023/07/16 09:08:29;;;;;;;2.63;2.40;;;35.20;30.10;;;;;;4993892;28;20205;-73
2023/07/16 09:10:56;;;;;;;3.60;3.03;;;35.10;31.00;;;;;;4993895;28;20782;-73
2023/07/16 09:13:26;;;;;;;5.07;2.97;;;35.60;32.00;;;;;;4993836;28;20283;-72
2023/07/16 09:15:53;;;;;;;3.20;2.70;;;35.20;30.70;;;;;;4993554;28;20412;-72
2023/07/16 09:18:25;;;;;;;3.57;2.90;;;35.10;31.20;;;;;;4993695;28;20459;-73
2023/07/16 09:20:58;;;;;;;6.30;2.87;;;34.80;31.40;;;;;;4993698;28;20545;-73
2023/07/16 09:23:27;;;;;;;2.67;2.47;;;35.30;31.60;;;;;;4993716;28;20414;-73
2023/07/16 09:25:56;;;;;;;3.03;2.57;;;35.30;31.50;;;;;;4993376;28;20772;-73
2023/07/16 09:28:22;;;;;;;2.47;2.20;;;36.10;31.10;;;;;;4993434;28;20455;-73
2023/07/16 09:30:48;;;;;;;4.13;2.60;;;36.20;30.20;;;;;;4993555;28;20408;-72
2023/07/16 09:33:15;;;;;;;3.10;2.40;;;35.20;30.70;;;;;;4993473;28;20181;-73
2023/07/16 09:35:41;;;;;;;3.00;2.33;;;34.70;31.00;;;;;;4993002;28;20923;-73
2023/07/16 09:38:09;;;;;;;2.33;2.13;;;35.40;33.40;;;;;;4993340;28;20446;-72
2023/07/16 09:40:35;;;;;;;3.53;2.20;;;35.90;30.50;;;;;;4993024;28;20224;-72
2023/07/16 09:43:01;;;;;;;2.40;2.17;;;35.80;31.20;;;;;;4993232;28;20424;-72
2023/07/16 09:45:27;;;;;;;3.50;2.60;;;35.70;31.20;;;;;;4992964;28;20948;-72
2023/07/16 09:47:53;;;;;;;3.77;2.47;;;35.40;30.90;;;;;;4979984;28;20440;-73
2023/07/16 09:50:19;;;;;;;3.60;2.40;;;34.80;32.20;;;;;;4993133;28;20180;-72
2023/07/16 09:52:47;;;;;;;3.90;3.60;;;34.50;31.30;;;;;;4993135;28;20300;-72
2023/07/16 09:55:14;;;;;;;2.63;2.20;;;34.00;32.50;;;;;;4992789;28;20408;-72
2023/07/16 09:57:43;;;;;;;3.03;2.70;;;34.20;32.30;;;;;;5008166;28;20802;-72
2023/07/16 10:00:15;;;;;;;3.40;2.80;;;34.00;33.30;;;;;;4992918;28;20451;-72
2023/07/16 10:02:41;;;;;;;2.60;2.40;;;33.80;32.40;;;;;;4992910;28;20989;-72
2023/07/16 10:05:18;;;;;;;5.33;3.57;;;33.20;32.40;;;;;;4992656;28;20495;-72
2023/07/16 10:07:50;;;;;;;3.63;3.30;;;32.90;34.30;;;;;;4992769;28;20458;-72
2023/07/16 10:10:17;;;;;;;3.07;2.43;;;32.50;33.70;;;;;;4993011;28;20470;-72
2023/07/16 10:12:54;;;;;;;3.03;2.27;;;32.40;34.20;;;;;;4992072;28;20939;-72
2023/07/16 10:15:26;;;;;;;2.77;2.27;;;33.20;33.50;;;;;;4992373;28;20948;-71
2023/07/16 10:17:51;;;;;;;3.13;2.50;;;33.40;33.60;;;;;;4992719;28;20424;-71
2023/07/16 10:20:27;;;;;;;3.33;2.43;;;32.90;33.70;;;;;;4992665;28;21015;-72
2023/07/16 10:22:53;;;;;;;3.37;2.90;;;32.40;34.10;;;;;;4992978;28;20164;-73
2023/07/16 10:25:18;;;;;;;3.10;2.33;;;31.90;35.20;;;;;;4992428;28;20929;-73
2023/07/16 10:27:45;;;;;;;3.77;2.30;;;32.20;35.90;;;;;;4992701;28;20184;-73
2023/07/16 10:30:12;;;;;;;2.30;2.10;;;32.80;35.30;;;;;;4992702;28;20181;-73
2023/07/16 10:32:37;;;;;;;2.63;2.43;;;33.50;34.60;;;;;;4992604;28;20404;-73
2023/07/16 10:35:05;;;;;;;5.13;2.67;;;33.20;33.40;;;;;;5011662;28;20418;-74
2023/07/16 10:37:31;;;;;;;2.90;2.40;;;32.10;33.60;;;;;;5012012;28;20164;-73
2023/07/16 10:40:00;;;;;;;2.97;2.37;;;31.50;34.90;;;;;;5012115;28;20527;-73
2023/07/16 10:42:27;;;;;;;5.43;2.20;;;30.90;35.80;;;;;;5012071;28;20160;-74
2023/07/16 10:45:04;;;;;;;2.93;2.50;;;30.80;36.60;;;;;;5011869;28;20407;-73
2023/07/16 10:47:31;;;;;;;2.63;2.40;;;30.20;36.80;;;;;;5012020;28;20514;-73
2023/07/16 10:49:56;;;;;;;8.40;2.70;;;30.80;38.40;;;;;;5011909;28;20446;-73
2023/07/16 10:52:22;;;;;;;4.00;2.33;;;30.90;36.00;;;;;;5012052;28;21114;-73
2023/07/16 10:54:55;;;;;;;2.10;1.90;;;32.50;36.80;;;;;;5007248;28;20168;-73
2023/07/16 10:57:22;;;;;;;2.47;1.77;;;33.50;34.10;;;;;;4991892;28;20499;-73
2023/07/16 10:59:49;;;;;;;3.30;2.73;;;33.90;34.70;;;;;;4992626;28;20460;-74
2023/07/16 11:02:15;;;;;;;3.33;2.60;;;35.80;32.00;;;;;;4992309;28;20396;-75
2023/07/16 11:04:42;;;;;;;4.43;3.10;;;34.90;30.90;;;;;;4992309;28;20412;-73
2023/07/16 11:07:11;;;;;;;4.17;3.77;;;33.70;32.10;;;;;;4991868;28;20428;-73
2023/07/16 11:09:53;;;;;;;3.17;2.37;;;32.80;33.50;;;;;;4992211;28;20471;-73
2023/07/16 11:12:21;;;;;;;2.30;2.10;;;33.00;35.00;;;;;;4992394;28;20432;-73
2023/07/16 11:14:49;;;;;;;5.53;3.00;;;33.10;34.20;;;;;;4992436;28;20495;-74
2023/07/16 11:17:15;;;;;;;4.00;2.60;;;33.90;32.50;;;;;;4991710;28;20408;-74
2023/07/16 11:19:44;;;;;;;3.30;2.57;;;33.50;32.60;;;;;;4992291;28;20452;-74
2023/07/16 11:22:10;;;;;;;6.33;2.77;;;32.70;33.30;;;;;;4992134;28;20818;-75
2023/07/16 11:24:38;;;;;;;4.07;2.90;;;32.00;34.30;;;;;;4994373;28;20408;-73
2023/07/16 11:27:03;;;;;;;8.43;3.00;;;32.00;34.20;;;;;;4995774;28;20827;-74
2023/07/16 11:29:36;;;;;;;4.73;2.30;;;31.90;35.10;;;;;;4995690;28;20424;-75
2023/07/16 11:32:01;;;;;;;2.90;2.33;;;31.70;34.70;;;;;;4995906;28;20197;-73
2023/07/16 11:34:27;;;;;;;2.17;1.97;;;31.70;35.40;;;;;;4995725;28;20412;-73
2023/07/16 11:36:52;;;;;;;3.93;2.07;;;31.30;34.60;;;;;;4995362;28;20226;-72
2023/07/16 11:39:19;;;;;;;3.67;2.50;;;30.50;35.00;;;;;;4995420;28;20548;-73
2023/07/16 11:41:55;;;;;;;2.90;2.70;;;30.60;36.30;;;;;;4995762;28;20577;-74
2023/07/16 11:44:20;;;;;;;3.03;2.50;;;30.10;36.40;;;;;;4995607;28;20400;-73
2023/07/16 11:46:46;;;;;;;3.73;2.33;;;29.90;37.30;;;;;;4995191;28;20415;-73
2023/07/16 11:49:12;;;;;;;2.30;2.10;;;30.10;37.40;;;;;;4995504;28;20199;-73
2023/07/16 11:51:37;;;;;;;7.47;2.30;;;30.90;36.80;;;;;;4995370;28;20411;-73
2023/07/16 11:54:03;;;;;;;2.10;1.80;;;31.80;36.30;;;;;;4995501;28;20536;-73
2023/07/16 11:56:28;;;;;;;3.40;2.10;;;34.20;35.40;;;;;;4995018;28;20169;-75
2023/07/16 11:58:54;;;;;;;5.70;2.03;;;35.40;33.60;;;;;;4995191;28;20275;-74
2023/07/16 12:01:20;;;;;;;2.30;2.13;;;35.10;32.40;;;;;;4994741;28;20177;-74
2023/07/16 12:03:45;;;;;;;2.63;2.33;;;34.90;32.20;;;;;;4994892;28;20535;-74
2023/07/16 12:06:11;;;;;;;2.90;2.70;;;34.10;32.20;;;;;;4994692;28;20196;-74
2023/07/16 12:08:36;;;;;;;4.20;2.60;;;33.00;32.40;;;;;;4995086;28;20264;-73
2023/07/16 12:11:01;;;;;;;2.97;2.47;;;31.60;32.90;;;;;;4995218;28;20211;-73
2023/07/16 12:13:27;;;;;;;4.20;3.23;;;30.70;34.10;;;;;;4994965;28;20272;-73
2023/07/16 12:15:53;;;;;;;2.40;1.83;;;30.50;35.80;;;;;;4994709;28;20200;-74
2023/07/16 12:18:18;;;;;;;3.40;1.93;;;31.90;37.20;;;;;;4994586;28;20696;-74
2023/07/16 12:20:44;;;;;;;2.90;2.07;;;34.10;35.10;;;;;;4994751;28;20289;-73
2023/07/16 12:23:09;;;;;;;3.37;2.70;;;34.70;33.00;;;;;;4994758;28;20248;-74
2023/07/16 12:25:35;;;;;;;4.20;2.70;;;34.20;32.20;;;;;;4993391;28;20173;-72
2023/07/16 12:28:01;;;;;;;2.83;2.53;;;34.20;31.60;;;;;;4992878;28;20328;-73
2023/07/16 12:30:27;;;;;;;4.13;3.53;;;33.70;32.00;;;;;;4994502;28;20514;-74
2023/07/16 12:32:53;;;;;;;3.27;2.80;;;33.10;32.60;;;;;;4994582;28;20415;-73
2023/07/16 12:35:18;;;;;;;3.40;2.90;;;32.70;33.00;;;;;;4993085;28;20180;-73
2023/07/16 12:37:44;;;;;;;3.33;2.90;;;33.80;33.30;;;;;;5006916;28;20199;-72
2023/07/16 12:40:09;;;;;;;8.90;2.90;;;34.20;32.60;;;;;;4994505;28;20201;-73
2023/07/16 12:42:35;;;;;;;4.57;2.70;;;33.90;31.80;;;;;;4994812;28;20177;-75